Time;durP1;ratioP1;P1;durP2;ratioP2;P2;SDS_P1;SDS_P2;PMS_P1;PMS_P2;Temp;Humidity;BMP_temperature;BMP_pressure;BME280_temperature;BME280_humidity;BME280_pressure;Samples;Min_cycle;Max_cycle;Signal;HPM_P1;HPM_P2
2023/09/04 00:01:59;;;;;;;4.38;2.17;;;17.80;99.90;;;;;;5045947;28;20103;-78
2023/09/04 00:04:27;;;;;;;6.07;2.47;;;17.90;99.90;;;;;;5051664;28;20045;-78
2023/09/04 00:06:54;;;;;;;5.10;2.30;;;17.80;99.90;;;;;;5046923;28;20040;-78
2023/09/04 00:09:22;;;;;;;3.95;2.47;;;17.80;99.90;;;;;;5028518;28;20068;-78
2023/09/04 00:11:49;;;;;;;3.47;2.15;;;17.80;99.90;;;;;;5036902;28;20115;-78
2023/09/04 00:14:16;;;;;;;5.25;2.42;;;17.70;99.90;;;;;;5028370;28;20052;-78
2023/09/04 00:16:43;;;;;;;2.75;2.25;;;17.70;99.90;;;;;;5023824;28;20133;-78
2023/09/04 00:19:10;;;;;;;5.40;2.78;;;17.70;99.90;;;;;;5036852;28;20045;-78
2023/09/04 00:21:38;;;;;;;5.45;2.58;;;17.70;99.90;;;;;;5024432;28;20045;-78
2023/09/04 00:24:05;;;;;;;5.65;2.90;;;17.70;99.90;;;;;;5040369;28;20183;-80
2023/09/04 00:26:32;;;;;;;3.40;2.45;;;17.70;99.90;;;;;;5036811;28;20048;-79
2023/09/04 00:28:59;;;;;;;3.63;2.42;;;17.60;99.90;;;;;;5041943;28;20495;-80
2023/09/04 00:31:26;;;;;;;4.20;2.30;;;17.60;99.90;;;;;;5042898;28;20041;-80
2023/09/04 00:33:53;;;;;;;3.55;2.10;;;17.60;99.90;;;;;;5050372;28;20389;-80
2023/09/04 00:36:20;;;;;;;3.28;2.42;;;17.60;99.90;;;;;;5027475;28;20103;-80
2023/09/04 00:38:48;;;;;;;3.55;2.28;;;17.60;99.90;;;;;;5029673;28;20124;-78
2023/09/04 00:41:15;;;;;;;4.68;2.25;;;17.50;99.90;;;;;;5044406;28;20045;-78
2023/09/04 00:43:43;;;;;;;3.33;1.95;;;17.50;99.90;;;;;;5023194;28;20076;-78
2023/09/04 00:46:10;;;;;;;3.38;2.15;;;17.50;99.90;;;;;;5035293;28;20053;-78
2023/09/04 00:48:39;;;;;;;3.72;2.67;;;17.40;99.90;;;;;;5027515;28;20052;-78
2023/09/04 00:51:07;;;;;;;3.75;2.13;;;17.40;99.90;;;;;;5047401;28;20529;-78
2023/09/04 00:53:36;;;;;;;6.15;2.70;;;17.40;99.90;;;;;;5040494;28;20041;-78
2023/09/04 00:56:03;;;;;;;3.67;2.22;;;17.30;99.90;;;;;;5039670;28;20484;-78
2023/09/04 00:58:31;;;;;;;5.35;2.60;;;17.40;99.90;;;;;;5045529;28;20547;-80
2023/09/04 01:01:00;;;;;;;3.85;2.58;;;17.30;99.90;;;;;;5026929;28;20048;-80
2023/09/04 01:03:30;;;;;;;3.58;2.65;;;17.30;99.90;;;;;;5043164;28;20041;-78
2023/09/04 01:05:59;;;;;;;3.33;2.10;;;17.30;99.90;;;;;;5039150;28;20045;-78
2023/09/04 01:08:27;;;;;;;4.07;2.35;;;17.20;99.90;;;;;;5049854;28;20045;-78
2023/09/04 01:11:27;;;;;;;3.22;2.45;;;17.20;99.90;;;;;;5034123;28;20951;-78
2023/09/04 01:13:56;;;;;;;6.28;2.80;;;17.20;99.90;;;;;;5035934;28;20055;-78
2023/09/04 01:16:24;;;;;;;3.35;2.60;;;17.20;99.90;;;;;;5042956;28;20152;-78
2023/09/04 01:18:52;;;;;;;4.40;3.05;;;17.10;99.90;;;;;;5041173;28;20052;-78
2023/09/04 01:21:19;;;;;;;3.85;2.30;;;17.10;99.90;;;;;;5025859;28;20044;-78
2023/09/04 01:23:46;;;;;;;5.28;2.90;;;17.10;99.90;;;;;;5054376;28;22718;-78
2023/09/04 01:26:26;;;;;;;4.70;2.90;;;17.00;99.90;;;;;;5028097;28;20440;-78
2023/09/04 01:29:15;;;;;;;3.50;2.47;;;17.00;99.90;;;;;;5046043;28;20053;-79
2023/09/04 01:32:09;;;;;;;3.60;2.75;;;17.00;99.90;;;;;;5035892;28;20061;-78
2023/09/04 01:34:49;;;;;;;3.55;2.33;;;17.00;99.90;;;;;;5036746;28;20136;-79
2023/09/04 01:37:17;;;;;;;7.03;2.97;;;16.90;99.90;;;;;;5041358;28;20053;-78
2023/09/04 01:39:45;;;;;;;4.20;2.70;;;16.90;99.90;;;;;;5039631;28;22821;-78
2023/09/04 01:42:13;;;;;;;3.85;2.85;;;16.90;99.90;;;;;;5039835;28;20124;-79
2023/09/04 01:44:41;;;;;;;3.70;2.38;;;16.90;99.90;;;;;;5027423;28;22840;-79
2023/09/04 01:47:08;;;;;;;2.97;2.45;;;16.90;99.90;;;;;;5022544;28;20128;-78
2023/09/04 01:49:35;;;;;;;3.97;2.70;;;16.90;99.90;;;;;;5035578;28;20045;-78
2023/09/04 01:52:03;;;;;;;4.10;3.00;;;16.90;99.90;;;;;;5022907;28;20042;-78
2023/09/04 01:54:30;;;;;;;5.03;3.05;;;16.90;99.90;;;;;;5017864;28;20049;-78
2023/09/04 01:56:57;;;;;;;5.82;3.67;;;16.90;99.90;;;;;;5036159;28;20037;-78
2023/09/04 01:59:25;;;;;;;5.03;3.30;;;16.90;99.90;;;;;;5040583;28;20049;-78
2023/09/04 02:01:53;;;;;;;4.97;2.90;;;17.00;99.90;;;;;;5043355;28;20072;-78
2023/09/04 02:04:20;;;;;;;4.68;2.83;;;17.00;99.90;;;;;;5032496;28;20053;-79
2023/09/04 02:06:47;;;;;;;5.38;3.00;;;16.90;99.90;;;;;;5039727;28;20512;-78
2023/09/04 02:09:14;;;;;;;4.50;2.72;;;16.90;99.90;;;;;;5033773;28;20061;-78
2023/09/04 02:11:41;;;;;;;4.28;2.75;;;16.90;99.90;;;;;;5015557;28;20102;-78
2023/09/04 02:14:09;;;;;;;5.95;3.10;;;16.90;99.90;;;;;;5034099;28;20485;-78
2023/09/04 02:16:37;;;;;;;5.22;3.58;;;16.90;99.90;;;;;;5024267;28;20045;-78
2023/09/04 02:19:05;;;;;;;4.70;3.67;;;16.90;99.90;;;;;;5033207;28;20042;-78
2023/09/04 02:21:32;;;;;;;5.07;3.90;;;16.80;99.90;;;;;;5038007;28;20114;-78
2023/09/04 02:23:59;;;;;;;3.45;2.50;;;16.90;99.90;;;;;;5045318;28;20041;-78
2023/09/04 02:26:26;;;;;;;4.50;3.30;;;16.80;99.90;;;;;;5039110;28;20102;-78
2023/09/04 02:28:54;;;;;;;4.43;3.00;;;16.80;99.90;;;;;;5042469;28;20086;-79
2023/09/04 02:31:21;;;;;;;3.85;2.78;;;16.90;99.90;;;;;;5035221;28;20099;-78
2023/09/04 02:33:48;;;;;;;4.00;3.13;;;16.80;99.90;;;;;;5037715;28;20112;-79
2023/09/04 02:36:15;;;;;;;5.03;3.10;;;16.80;99.90;;;;;;5021429;28;20133;-78
2023/09/04 02:38:43;;;;;;;5.82;3.30;;;16.80;99.90;;;;;;5040569;28;20115;-78
2023/09/04 02:41:10;;;;;;;5.13;2.58;;;16.70;99.90;;;;;;5024147;28;20140;-79
2023/09/04 02:43:37;;;;;;;4.38;2.92;;;16.70;99.90;;;;;;5028414;28;20099;-78
2023/09/04 02:46:04;;;;;;;6.43;3.55;;;16.60;99.90;;;;;;5027363;28;20068;-78
2023/09/04 02:48:31;;;;;;;4.25;3.03;;;16.60;99.90;;;;;;5035443;28;20041;-78
2023/09/04 02:50:59;;;;;;;4.63;3.17;;;16.50;99.90;;;;;;5037761;28;22748;-78
2023/09/04 02:53:28;;;;;;;7.22;3.78;;;16.50;99.90;;;;;;5022309;28;20962;-78
2023/09/04 02:55:56;;;;;;;5.25;3.40;;;16.50;99.90;;;;;;5032147;28;20050;-76
2023/09/04 02:58:24;;;;;;;5.38;3.30;;;16.40;99.90;;;;;;5032033;28;20964;-78
2023/09/04 03:00:52;;;;;;;5.97;2.85;;;16.40;99.90;;;;;;5034932;28;20381;-78
2023/09/04 03:03:22;;;;;;;7.55;2.97;;;16.40;99.90;;;;;;5037108;28;20033;-78
2023/09/04 03:05:49;;;;;;;4.53;3.17;;;16.40;99.90;;;;;;5040102;28;20042;-78
2023/09/04 03:08:16;;;;;;;4.35;3.17;;;16.40;99.90;;;;;;5036617;28;20064;-79
2023/09/04 03:10:43;;;;;;;3.63;2.75;;;16.40;99.90;;;;;;5040401;28;20041;-78
2023/09/04 03:13:11;;;;;;;3.55;2.67;;;16.50;99.90;;;;;;5023675;28;20056;-78
2023/09/04 03:15:38;;;;;;;4.60;3.28;;;16.50;99.90;;;;;;5041744;28;20045;-78
2023/09/04 03:18:06;;;;;;;5.22;3.30;;;16.50;99.90;;;;;;5039626;28;20053;-78
2023/09/04 03:20:33;;;;;;;5.55;3.05;;;16.50;99.90;;;;;;5039046;28;20049;-79
2023/09/04 03:23:01;;;;;;;4.32;2.90;;;16.50;99.90;;;;;;5013248;28;20060;-79
2023/09/04 03:25:28;;;;;;;4.57;2.95;;;16.50;99.90;;;;;;5034443;28;20100;-78
2023/09/04 03:27:56;;;;;;;4.15;2.85;;;16.50;99.90;;;;;;5023938;28;20040;-78
2023/09/04 03:30:24;;;;;;;5.03;2.83;;;16.40;99.90;;;;;;5030216;28;20068;-79
2023/09/04 03:32:51;;;;;;;4.93;3.20;;;16.40;99.90;;;;;;5047483;28;20449;-78
2023/09/04 03:35:18;;;;;;;4.82;2.92;;;16.50;99.90;;;;;;5037125;28;20136;-78
2023/09/04 03:37:45;;;;;;;4.40;3.15;;;16.40;99.90;;;;;;5044972;28;20488;-77
2023/09/04 03:40:21;;;;;;;5.00;3.00;;;16.40;99.90;;;;;;5049355;28;20045;-79
2023/09/04 03:42:48;;;;;;;5.35;2.70;;;16.50;99.90;;;;;;5038910;28;20112;-78
2023/09/04 03:45:17;;;;;;;5.25;3.13;;;16.40;99.90;;;;;;5043162;28;20033;-78
2023/09/04 03:47:45;;;;;;;6.90;2.85;;;16.40;99.90;;;;;;5044881;28;20132;-78
2023/09/04 03:50:13;;;;;;;5.57;2.65;;;16.30;99.90;;;;;;5038889;28;20136;-77
2023/09/04 03:52:41;;;;;;;6.57;2.75;;;16.20;99.90;;;;;;5048502;28;20045;-77
2023/09/04 03:55:10;;;;;;;5.03;3.33;;;16.20;99.90;;;;;;5031689;28;20069;-76
2023/09/04 03:57:37;;;;;;;4.22;3.22;;;16.20;99.90;;;;;;5037329;28;20060;-76
2023/09/04 04:00:26;;;;;;;4.88;2.90;;;16.10;99.90;;;;;;5043700;28;20049;-74
2023/09/04 04:02:52;;;;;;;5.38;2.97;;;16.10;99.90;;;;;;5047164;28;20045;-75
2023/09/04 04:05:20;;;;;;;4.43;2.33;;;16.10;99.90;;;;;;5029934;28;20037;-75
2023/09/04 04:07:47;;;;;;;5.82;3.00;;;16.00;99.90;;;;;;5034358;28;20052;-75
2023/09/04 04:10:15;;;;;;;6.13;3.20;;;16.00;99.90;;;;;;5037179;28;20039;-77
2023/09/04 04:12:42;;;;;;;4.35;2.92;;;16.00;99.90;;;;;;5026877;28;20057;-77
2023/09/04 04:15:11;;;;;;;5.43;3.28;;;16.10;99.90;;;;;;5041735;28;20075;-76
2023/09/04 04:17:39;;;;;;;4.15;2.90;;;15.90;99.90;;;;;;5036100;28;20053;-75
2023/09/04 04:20:10;;;;;;;4.32;3.10;;;16.00;99.90;;;;;;5044899;28;20057;-75
2023/09/04 04:22:40;;;;;;;6.43;3.55;;;15.80;99.90;;;;;;5043001;28;20747;-76
2023/09/04 04:25:07;;;;;;;4.20;2.92;;;15.90;99.90;;;;;;5043573;28;20084;-75
2023/09/04 04:27:34;;;;;;;6.47;3.08;;;15.90;99.90;;;;;;5039469;28;22212;-77
2023/09/04 04:30:02;;;;;;;4.28;3.17;;;16.00;99.90;;;;;;5041011;28;20045;-74
2023/09/04 04:32:30;;;;;;;7.10;3.25;;;15.90;99.90;;;;;;5036213;28;20101;-76
2023/09/04 04:34:57;;;;;;;6.43;2.92;;;16.00;99.90;;;;;;5020322;28;20538;-75
2023/09/04 04:37:25;;;;;;;4.60;2.85;;;16.00;99.90;;;;;;5044099;28;20128;-77
2023/09/04 04:39:52;;;;;;;6.10;3.50;;;16.00;99.90;;;;;;5054115;28;20048;-79
2023/09/04 04:42:20;;;;;;;8.15;3.40;;;16.10;99.90;;;;;;5026267;28;20076;-77
2023/09/04 04:44:47;;;;;;;5.22;2.80;;;16.10;99.90;;;;;;5048574;28;20041;-75
2023/09/04 04:47:15;;;;;;;4.90;3.45;;;16.20;99.90;;;;;;5040937;28;20119;-77
2023/09/04 04:49:44;;;;;;;8.13;3.25;;;16.20;99.90;;;;;;5040634;28;20178;-75
2023/09/04 04:52:11;;;;;;;5.63;4.22;;;16.10;99.90;;;;;;5035270;28;20077;-77
2023/09/04 04:54:38;;;;;;;4.93;3.45;;;16.10;99.90;;;;;;5027380;28;20994;-75
2023/09/04 04:57:05;;;;;;;4.57;3.33;;;16.10;99.90;;;;;;5034617;28;20132;-75
2023/09/04 04:59:35;;;;;;;5.97;3.47;;;16.00;99.90;;;;;;5043485;28;20061;-75
2023/09/04 05:02:03;;;;;;;5.07;2.97;;;16.10;99.90;;;;;;5033268;28;20045;-78
2023/09/04 05:04:34;;;;;;;4.35;3.03;;;16.10;99.90;;;;;;5044013;28;20131;-77
2023/09/04 05:07:04;;;;;;;4.07;3.15;;;16.20;99.90;;;;;;5033758;28;20045;-74
2023/09/04 05:09:32;;;;;;;4.63;2.80;;;16.20;99.90;;;;;;5051617;28;20088;-75
2023/09/04 05:12:00;;;;;;;5.10;3.20;;;16.30;99.90;;;;;;5053070;28;20041;-77
2023/09/04 05:14:27;;;;;;;6.60;3.08;;;16.30;99.90;;;;;;5026768;28;20045;-77
2023/09/04 05:16:55;;;;;;;4.20;3.38;;;16.30;99.90;;;;;;5026957;28;20052;-77
2023/09/04 05:19:22;;;;;;;4.60;2.85;;;16.40;99.90;;;;;;5026928;28;20064;-76
2023/09/04 05:21:49;;;;;;;5.75;3.22;;;16.60;99.90;;;;;;5036318;28;20727;-78
2023/09/04 05:24:23;;;;;;;5.60;2.95;;;16.60;99.90;;;;;;5033827;28;20077;-75
2023/09/04 05:26:51;;;;;;;5.75;2.72;;;16.60;99.90;;;;;;5045240;28;20191;-75
2023/09/04 05:29:18;;;;;;;3.85;2.70;;;16.60;99.90;;;;;;5035595;28;20127;-78
2023/09/04 05:31:45;;;;;;;3.28;2.45;;;16.70;99.90;;;;;;5022944;28;20081;-76
2023/09/04 05:34:12;;;;;;;5.13;2.85;;;16.70;99.90;;;;;;5019451;28;20072;-77
2023/09/04 05:36:40;;;;;;;6.55;2.78;;;16.70;99.90;;;;;;5039557;28;21655;-77
2023/09/04 05:39:08;;;;;;;5.35;2.58;;;16.80;99.90;;;;;;5034084;28;20042;-75
2023/09/04 05:41:36;;;;;;;5.10;3.08;;;16.80;99.90;;;;;;5039637;28;20041;-76
2023/09/04 05:44:07;;;;;;;5.47;2.40;;;16.90;99.90;;;;;;5036458;28;20500;-77
2023/09/04 05:46:34;;;;;;;2.90;2.45;;;16.90;99.90;;;;;;5050461;28;20033;-77
2023/09/04 05:49:02;;;;;;;5.30;4.10;;;17.00;99.90;;;;;;5031160;28;20033;-75
2023/09/04 05:51:29;;;;;;;2.58;1.90;;;17.10;99.90;;;;;;5041344;28;20411;-78
2023/09/04 05:53:56;;;;;;;4.75;2.70;;;17.10;99.90;;;;;;5033142;28;20559;-77
2023/09/04 05:56:23;;;;;;;3.45;2.03;;;17.20;99.90;;;;;;5040349;28;20053;-77
2023/09/04 05:58:51;;;;;;;4.65;2.55;;;17.30;99.90;;;;;;5020749;28;20152;-78
2023/09/04 06:01:20;;;;;;;4.38;3.05;;;17.30;99.90;;;;;;5039233;28;20041;-78
2023/09/04 06:03:48;;;;;;;3.20;2.20;;;17.40;99.90;;;;;;5039943;28;20082;-77
2023/09/04 06:06:16;;;;;;;6.15;2.28;;;17.50;99.90;;;;;;5024191;28;20037;-76
2023/09/04 06:08:43;;;;;;;4.45;2.30;;;17.60;99.90;;;;;;5036671;28;20504;-77
2023/09/04 06:11:10;;;;;;;4.40;2.58;;;17.80;99.90;;;;;;5032996;28;20118;-77
2023/09/04 06:13:38;;;;;;;6.03;2.28;;;17.90;99.90;;;;;;5049632;28;20134;-79
2023/09/04 06:16:05;;;;;;;4.15;2.30;;;18.00;99.90;;;;;;5043317;28;20045;-79
2023/09/04 06:18:32;;;;;;;6.38;2.35;;;18.10;99.90;;;;;;5022646;28;21034;-79
2023/09/04 06:20:59;;;;;;;4.15;2.38;;;18.20;99.70;;;;;;5035989;28;20419;-78
2023/09/04 06:23:26;;;;;;;3.95;2.33;;;18.30;99.30;;;;;;5045163;28;20125;-77
2023/09/04 06:25:53;;;;;;;2.70;2.38;;;18.40;99.00;;;;;;5042557;28;20049;-76
2023/09/04 06:28:21;;;;;;;4.22;2.22;;;18.60;98.80;;;;;;5025016;28;20083;-77
2023/09/04 06:30:49;;;;;;;3.60;2.22;;;18.60;98.10;;;;;;5016180;28;20037;-77
2023/09/04 06:33:16;;;;;;;4.63;1.92;;;18.60;97.00;;;;;;5016847;28;20048;-75
2023/09/04 06:35:44;;;;;;;4.25;2.00;;;18.70;96.50;;;;;;5062774;28;20048;-77
2023/09/04 06:38:12;;;;;;;3.33;2.10;;;18.80;96.80;;;;;;5061900;28;20036;-75
2023/09/04 06:40:40;;;;;;;4.70;1.90;;;18.90;96.30;;;;;;5055163;28;21970;-75
2023/09/04 06:43:07;;;;;;;5.05;2.20;;;19.00;96.10;;;;;;5058014;28;20503;-77
2023/09/04 06:45:38;;;;;;;3.97;1.92;;;19.10;96.20;;;;;;5072044;28;20062;-76
2023/09/04 06:48:06;;;;;;;4.47;1.55;;;19.20;95.90;;;;;;5047015;28;20052;-77
2023/09/04 06:50:33;;;;;;;4.65;1.83;;;19.30;95.40;;;;;;5053960;28;20044;-78
2023/09/04 06:53:00;;;;;;;3.22;1.60;;;19.40;95.20;;;;;;5068689;28;20123;-77
2023/09/04 06:55:27;;;;;;;4.88;1.88;;;19.40;95.10;;;;;;5045651;28;20072;-76
2023/09/04 06:57:54;;;;;;;2.83;2.00;;;19.60;94.80;;;;;;5052699;28;20063;-76
2023/09/04 07:00:21;;;;;;;3.08;1.88;;;19.70;94.60;;;;;;5044271;28;20068;-76
2023/09/04 07:02:48;;;;;;;4.65;1.90;;;19.70;94.80;;;;;;5056028;28;20068;-76
2023/09/04 07:05:17;;;;;;;4.68;1.80;;;19.80;94.20;;;;;;5075322;28;20384;-75
2023/09/04 07:07:47;;;;;;;2.75;1.60;;;19.90;94.20;;;;;;5055508;28;20041;-76
2023/09/04 07:10:15;;;;;;;5.07;1.70;;;20.00;93.60;;;;;;5071651;28;20140;-77
2023/09/04 07:12:42;;;;;;;4.43;1.65;;;20.10;93.30;;;;;;5072913;28;20054;-75
2023/09/04 07:15:09;;;;;;;2.63;1.38;;;20.20;93.00;;;;;;5076270;28;20048;-76
2023/09/04 07:17:36;;;;;;;2.38;1.15;;;20.30;92.10;;;;;;5081619;28;20036;-78
2023/09/04 07:20:05;;;;;;;4.95;1.63;;;20.40;90.40;;;;;;5059294;28;20066;-76
2023/09/04 07:22:32;;;;;;;3.67;1.08;;;20.40;90.30;;;;;;5077838;28;20075;-79
2023/09/04 07:24:59;;;;;;;3.03;1.25;;;20.60;90.20;;;;;;5062636;28;20044;-75
2023/09/04 07:27:27;;;;;;;2.38;1.30;;;20.60;89.40;;;;;;5063464;28;20036;-76
2023/09/04 07:29:54;;;;;;;3.08;1.35;;;20.70;88.80;;;;;;5058641;28;20052;-78
2023/09/04 07:32:22;;;;;;;3.80;1.23;;;20.80;88.50;;;;;;5075759;28;20064;-77
2023/09/04 07:34:49;;;;;;;3.15;1.40;;;20.80;87.00;;;;;;5046222;28;20044;-77
2023/09/04 07:37:16;;;;;;;4.45;1.50;;;20.80;88.20;;;;;;5058331;28;20044;-77
2023/09/04 07:39:43;;;;;;;3.92;1.23;;;20.90;89.90;;;;;;5060697;28;20109;-75
2023/09/04 07:42:12;;;;;;;6.32;1.38;;;21.00;88.60;;;;;;5064975;28;20128;-77
2023/09/04 07:44:39;;;;;;;2.55;1.30;;;21.10;89.30;;;;;;5079633;28;20032;-78
2023/09/04 07:47:06;;;;;;;2.08;1.17;;;21.10;86.30;;;;;;5061602;28;20051;-76
2023/09/04 07:49:34;;;;;;;2.55;1.27;;;21.10;86.10;;;;;;5046100;28;20060;-79
2023/09/04 07:52:01;;;;;;;2.47;1.20;;;21.20;86.00;;;;;;5080983;28;20040;-77
2023/09/04 07:54:28;;;;;;;2.28;1.05;;;21.30;85.60;;;;;;5076385;28;20055;-78
2023/09/04 07:56:55;;;;;;;2.58;1.30;;;21.40;83.60;;;;;;5077458;28;20056;-76
2023/09/04 07:59:22;;;;;;;2.40;1.10;;;21.40;83.10;;;;;;5062612;28;20418;-78
2023/09/04 08:01:50;;;;;;;2.38;1.10;;;21.40;80.20;;;;;;5075228;28;20040;-78
2023/09/04 08:04:17;;;;;;;2.67;1.13;;;21.40;80.60;;;;;;5075988;28;20036;-77
2023/09/04 08:06:44;;;;;;;1.90;0.95;;;21.50;79.70;;;;;;5061199;28;20052;-78
2023/09/04 08:09:12;;;;;;;2.35;0.77;;;21.70;79.50;;;;;;5061209;28;20048;-76
2023/09/04 08:11:39;;;;;;;2.40;0.60;;;21.70;78.10;;;;;;5052749;28;22713;-77
2023/09/04 08:14:06;;;;;;;4.43;0.85;;;21.70;77.80;;;;;;5074388;28;20118;-76
2023/09/04 08:16:33;;;;;;;2.20;0.77;;;21.70;76.30;;;;;;5056780;28;20048;-79
2023/09/04 08:19:01;;;;;;;2.38;0.68;;;21.80;76.40;;;;;;5049410;28;20475;-76
2023/09/04 08:21:28;;;;;;;1.70;0.57;;;22.00;76.60;;;;;;5076307;28;20498;-77
2023/09/04 08:23:55;;;;;;;1.40;0.70;;;22.10;75.90;;;;;;5058895;28;20494;-79
2023/09/04 08:26:22;;;;;;;1.38;0.70;;;22.10;74.60;;;;;;5050866;28;21025;-77
2023/09/04 08:28:49;;;;;;;2.92;0.90;;;22.20;74.70;;;;;;5061837;28;20036;-79
2023/09/04 08:31:17;;;;;;;1.45;0.57;;;22.20;74.40;;;;;;5057947;28;20044;-79
2023/09/04 08:33:44;;;;;;;1.55;0.55;;;22.20;74.30;;;;;;5079950;28;20040;-80
2023/09/04 08:36:11;;;;;;;1.60;0.80;;;22.30;74.50;;;;;;5067326;28;20056;-79
2023/09/04 08:38:38;;;;;;;1.52;0.90;;;22.30;73.80;;;;;;5047233;28;20049;-78
2023/09/04 08:41:09;;;;;;;2.20;0.88;;;22.20;73.40;;;;;;5039058;28;22782;-77
2023/09/04 08:43:40;;;;;;;1.50;0.60;;;22.20;73.70;;;;;;5060735;28;20105;-79
2023/09/04 08:46:08;;;;;;;1.80;1.02;;;22.20;73.50;;;;;;5046439;28;20479;-79
2023/09/04 08:48:39;;;;;;;1.75;0.98;;;22.10;73.10;;;;;;5060686;28;20059;-80
2023/09/04 08:51:07;;;;;;;2.05;0.90;;;22.10;73.50;;;;;;5032029;28;20790;-76
2023/09/04 08:53:36;;;;;;;5.50;1.52;;;22.00;73.60;;;;;;5074433;28;20075;-79
2023/09/04 08:56:05;;;;;;;1.52;0.80;;;22.00;73.50;;;;;;5066548;28;20049;-77
2023/09/04 08:58:32;;;;;;;3.00;0.80;;;22.20;74.70;;;;;;5056413;28;20491;-79
2023/09/04 09:01:01;;;;;;;3.30;0.90;;;22.10;74.10;;;;;;5064341;28;20052;-78
2023/09/04 09:03:28;;;;;;;2.88;1.35;;;22.10;73.70;;;;;;5047963;28;20052;-80
2023/09/04 09:05:57;;;;;;;0.98;0.52;;;22.20;73.90;;;;;;5061357;28;20090;-79
2023/09/04 09:08:26;;;;;;;3.28;1.05;;;22.30;75.70;;;;;;5061729;28;20059;-78
2023/09/04 09:10:53;;;;;;;1.98;1.00;;;22.40;74.70;;;;;;5058029;28;20495;-79
2023/09/04 09:13:21;;;;;;;3.42;0.73;;;22.40;75.50;;;;;;5058620;28;20055;-77
2023/09/04 09:15:48;;;;;;;2.47;0.68;;;22.50;74.70;;;;;;5058516;28;20405;-79
2023/09/04 09:18:39;;;;;;;2.17;0.77;;;22.40;73.90;;;;;;5050323;28;20055;-77
2023/09/04 09:21:43;;;;;;;1.60;0.70;;;22.40;74.50;;;;;;5062923;28;20113;-79
2023/09/04 09:24:14;;;;;;;1.75;0.60;;;22.40;74.80;;;;;;4993740;28;20053;-79
2023/09/04 09:26:44;;;;;;;2.25;0.85;;;22.60;75.30;;;;;;5061522;28;20793;-77
2023/09/04 09:29:12;;;;;;;1.85;0.55;;;22.60;72.90;;;;;;5061582;28;20032;-77
2023/09/04 09:31:42;;;;;;;2.55;0.70;;;22.60;72.30;;;;;;5062704;28;20534;-76
2023/09/04 09:34:10;;;;;;;1.55;0.70;;;22.60;71.90;;;;;;5073948;28;20056;-78
2023/09/04 09:36:38;;;;;;;1.38;0.40;;;22.70;72.10;;;;;;5047849;28;20052;-75
2023/09/04 09:39:06;;;;;;;1.10;0.40;;;22.70;70.10;;;;;;5044714;28;20052;-78
2023/09/04 09:41:33;;;;;;;1.63;1.10;;;22.60;69.60;;;;;;5047699;28;20095;-79
2023/09/04 09:44:04;;;;;;;0.93;0.47;;;22.70;70.50;;;;;;5054489;28;20052;-79
2023/09/04 09:46:35;;;;;;;1.88;0.63;;;22.80;70.70;;;;;;5062296;28;20056;-76
2023/09/04 09:49:03;;;;;;;1.95;0.55;;;22.80;70.80;;;;;;5065808;28;20122;-78
2023/09/04 09:51:32;;;;;;;2.30;0.50;;;22.80;69.40;;;;;;5063078;28;20122;-79
2023/09/04 09:54:00;;;;;;;2.13;0.65;;;22.80;70.00;;;;;;5056631;28;20041;-77
2023/09/04 09:56:28;;;;;;;2.25;0.40;;;22.90;69.80;;;;;;5077043;28;20098;-80
2023/09/04 09:58:56;;;;;;;0.90;0.40;;;22.90;69.70;;;;;;5047044;28;20118;-77
2023/09/04 10:01:27;;;;;;;2.25;0.43;;;22.80;68.90;;;;;;5040046;28;23059;-81
2023/09/04 10:03:56;;;;;;;2.78;0.70;;;22.90;69.60;;;;;;5047200;28;20044;-80
2023/09/04 10:06:33;;;;;;;1.33;0.47;;;22.90;69.40;;;;;;5037922;28;20056;-80
2023/09/04 10:09:04;;;;;;;1.80;0.50;;;22.90;69.60;;;;;;5037405;28;21332;-78
2023/09/04 10:11:33;;;;;;;1.80;0.50;;;22.80;69.60;;;;;;5025083;28;20372;-77
2023/09/04 10:14:14;;;;;;;1.73;0.70;;;22.50;70.00;;;;;;5054251;28;20495;-75
2023/09/04 10:16:50;;;;;;;0.93;0.43;;;22.40;70.50;;;;;;5041734;28;20946;-76
2023/09/04 10:19:19;;;;;;;1.20;0.57;;;22.60;71.40;;;;;;5053496;28;20601;-78
2023/09/04 10:21:54;;;;;;;1.30;0.50;;;22.80;70.70;;;;;;5027626;28;20056;-78
2023/09/04 10:24:30;;;;;;;5.40;1.13;;;22.80;70.70;;;;;;5027121;28;20522;-76
2023/09/04 10:27:05;;;;;;;1.80;0.47;;;22.80;69.20;;;;;;5039208;28;20451;-80
2023/09/04 10:29:46;;;;;;;1.20;0.60;;;22.90;69.00;;;;;;5037175;28;20084;-76
2023/09/04 10:32:14;;;;;;;2.22;0.50;;;23.00;68.90;;;;;;5027580;28;20080;-77
2023/09/04 10:34:42;;;;;;;1.70;0.60;;;23.10;69.40;;;;;;5037645;28;20052;-78
2023/09/04 10:37:11;;;;;;;2.42;0.63;;;23.10;68.60;;;;;;5042174;28;20096;-78
2023/09/04 10:39:41;;;;;;;1.70;0.50;;;23.20;69.40;;;;;;5021819;28;20960;-76
2023/09/04 10:42:11;;;;;;;1.38;0.70;;;23.20;69.60;;;;;;5040615;28;20466;-77
2023/09/04 10:44:51;;;;;;;1.83;0.60;;;23.20;69.10;;;;;;5047300;28;20044;-80
2023/09/04 10:47:19;;;;;;;1.30;0.60;;;23.30;68.80;;;;;;5045995;28;23481;-77
2023/09/04 10:49:47;;;;;;;1.58;0.60;;;23.40;70.80;;;;;;5050310;28;20936;-77
2023/09/04 10:52:15;;;;;;;1.27;0.60;;;23.40;69.30;;;;;;5025355;28;20409;-79
2023/09/04 10:54:42;;;;;;;1.25;0.50;;;23.30;68.40;;;;;;5056179;28;20044;-76
2023/09/04 10:57:14;;;;;;;2.55;0.70;;;23.30;68.10;;;;;;5036255;28;20053;-77
2023/09/04 10:59:53;;;;;;;1.33;0.60;;;23.30;67.90;;;;;;5055438;28;21025;-77
2023/09/04 11:02:29;;;;;;;1.70;0.70;;;23.40;68.30;;;;;;5042854;28;20040;-78
2023/09/04 11:04:58;;;;;;;1.42;0.70;;;23.50;68.00;;;;;;5028604;28;20037;-76
2023/09/04 11:07:28;;;;;;;7.65;1.95;;;23.40;67.50;;;;;;5052537;28;20442;-76
2023/09/04 11:10:02;;;;;;;1.52;0.73;;;23.30;68.50;;;;;;5041481;28;20036;-77
2023/09/04 11:12:37;;;;;;;1.13;0.57;;;23.40;68.40;;;;;;5049062;28;20514;-80
2023/09/04 11:15:26;;;;;;;3.00;0.60;;;23.50;68.90;;;;;;5040434;28;20045;-80
2023/09/04 11:17:53;;;;;;;1.48;0.50;;;23.40;67.70;;;;;;5055816;28;20073;-79
2023/09/04 11:20:30;;;;;;;2.10;0.80;;;23.40;67.80;;;;;;5052640;28;20067;-80
2023/09/04 11:22:57;;;;;;;1.35;0.50;;;23.40;67.50;;;;;;5051326;28;20044;-78
2023/09/04 11:25:25;;;;;;;1.45;0.60;;;23.60;68.40;;;;;;5043702;28;20555;-79
2023/09/04 11:27:52;;;;;;;1.83;0.60;;;23.40;68.00;;;;;;5058607;28;20041;-80
2023/09/04 11:30:19;;;;;;;1.67;0.77;;;23.10;68.20;;;;;;5040191;28;20295;-79
2023/09/04 11:32:46;;;;;;;2.97;0.70;;;23.00;68.50;;;;;;5041817;28;20053;-79
2023/09/04 11:35:14;;;;;;;1.20;0.55;;;23.20;69.50;;;;;;5048632;28;20053;-80
2023/09/04 11:37:42;;;;;;;2.95;0.70;;;23.50;68.70;;;;;;5042614;28;20037;-80
2023/09/04 11:40:10;;;;;;;1.55;0.50;;;23.50;68.60;;;;;;5040233;28;21046;-80
2023/09/04 11:42:38;;;;;;;1.10;0.65;;;23.50;67.60;;;;;;5027709;28;20049;-79
2023/09/04 11:45:07;;;;;;;1.10;0.50;;;23.50;67.60;;;;;;5035268;28;20037;-78
2023/09/04 11:47:34;;;;;;;1.42;0.47;;;23.60;67.90;;;;;;5053089;28;20454;-80
2023/09/04 11:50:01;;;;;;;0.93;0.40;;;23.70;67.70;;;;;;5038844;28;20103;-79
2023/09/04 11:52:29;;;;;;;1.50;0.60;;;23.80;67.60;;;;;;5030225;28;20045;-79
2023/09/04 11:54:56;;;;;;;1.33;0.70;;;23.50;67.00;;;;;;5038044;28;20044;-79
2023/09/04 11:57:24;;;;;;;1.50;0.60;;;23.50;67.40;;;;;;5055837;28;20041;-79
2023/09/04 11:59:51;;;;;;;1.95;0.60;;;23.50;67.40;;;;;;5056102;28;20798;-80
2023/09/04 12:02:18;;;;;;;1.48;0.55;;;23.60;67.30;;;;;;5074037;28;20053;-79
2023/09/04 12:04:46;;;;;;;1.27;0.60;;;23.80;67.50;;;;;;5064706;28;20048;-78
2023/09/04 12:07:16;;;;;;;3.30;0.68;;;23.70;68.10;;;;;;5069530;28;20040;-79
2023/09/04 12:09:43;;;;;;;3.22;0.80;;;23.80;67.10;;;;;;5065901;28;23318;-80
2023/09/04 12:12:12;;;;;;;1.35;0.60;;;23.80;66.90;;;;;;5064572;28;20090;-78
2023/09/04 12:14:44;;;;;;;1.60;0.40;;;23.80;66.20;;;;;;5058826;28;20510;-80
2023/09/04 12:17:12;;;;;;;1.08;0.40;;;23.80;65.30;;;;;;5066544;28;20055;-77
2023/09/04 12:19:43;;;;;;;1.38;0.57;;;23.80;66.20;;;;;;5049832;28;20453;-76
2023/09/04 12:22:12;;;;;;;0.90;0.52;;;23.80;65.80;;;;;;5067251;28;20040;-77
2023/09/04 12:24:56;;;;;;;2.55;0.50;;;23.90;65.00;;;;;;5063436;28;20077;-76
2023/09/04 12:27:23;;;;;;;1.83;0.50;;;23.90;65.10;;;;;;5060435;28;20044;-79
2023/09/04 12:29:50;;;;;;;1.15;0.60;;;24.00;64.60;;;;;;5061535;28;20582;-76
2023/09/04 12:32:21;;;;;;;1.08;0.50;;;24.10;65.00;;;;;;5063687;28;20056;-79
2023/09/04 12:34:50;;;;;;;2.47;0.90;;;24.10;65.10;;;;;;5064781;28;20047;-81
2023/09/04 12:37:18;;;;;;;2.38;0.63;;;24.00;64.50;;;;;;5049394;28;20056;-79
2023/09/04 12:39:45;;;;;;;2.38;0.50;;;23.90;64.90;;;;;;5077962;28;20403;-78
2023/09/04 12:42:12;;;;;;;1.88;0.70;;;23.90;64.60;;;;;;5070195;28;20924;-79
2023/09/04 12:44:40;;;;;;;1.98;0.52;;;23.80;65.00;;;;;;5084951;28;20036;-79
2023/09/04 12:47:07;;;;;;;1.25;0.52;;;23.90;64.60;;;;;;5083074;28;20402;-80
2023/09/04 12:49:34;;;;;;;1.50;0.50;;;24.00;63.70;;;;;;5050541;28;20032;-81
2023/09/04 12:52:01;;;;;;;1.40;0.50;;;24.00;63.70;;;;;;5066755;28;20047;-79
2023/09/04 12:54:28;;;;;;;2.20;0.65;;;24.10;64.00;;;;;;5058729;28;20066;-78
2023/09/04 12:56:55;;;;;;;1.30;0.40;;;24.20;64.90;;;;;;5063386;28;20053;-79